createdAt,value
2017-10-11T00:07:20.178Z,0.0
2017-10-11T00:17:34.437Z,0.0
2017-10-11T00:27:48.713Z,0.0
2017-10-11T00:38:02.902Z,0.0
2017-10-11T00:48:15.140Z,0.0
2017-10-11T00:58:29.283Z,0.0
2017-10-11T01:08:43.480Z,0.0
2017-10-11T01:19:28.017Z,0.0
2017-10-11T01:29:41.508Z,0.0
2017-10-11T01:40:27.230Z,0.0
2017-10-11T01:50:38.765Z,0.0
2017-10-11T02:00:50.720Z,0.0
2017-10-11T02:11:02.174Z,0.0
2017-10-11T02:21:49.900Z,0.0
2017-10-11T02:32:03.884Z,0.0
2017-10-11T02:42:18.457Z,0.0
2017-10-11T02:52:30.497Z,0.0
2017-10-11T03:02:44.876Z,0.0
2017-10-11T03:12:59.062Z,0.0
2017-10-11T03:23:13.178Z,0.0
2017-10-11T03:33:27.415Z,0.0
2017-10-11T03:43:39.398Z,0.0
2017-10-11T03:53:53.677Z,0.0
2017-10-11T04:04:38.615Z,0.0
2017-10-11T04:15:12.507Z,0.0
2017-10-11T04:25:26.791Z,0.0
2017-10-11T04:36:11.784Z,0.0
2017-10-11T04:46:56.654Z,0.0
2017-10-11T04:57:12.721Z,0.0
2017-10-11T05:08:07.025Z,0.0
2017-10-11T05:19:17.722Z,0.0
2017-10-11T05:29:31.518Z,4.0
2017-10-11T05:39:45.947Z,16.0
2017-10-11T05:50:00.322Z,40.0
2017-10-11T06:00:14.161Z,64.0
2017-10-11T06:10:25.436Z,140.0
2017-10-11T06:20:39.648Z,156.0
2017-10-11T06:31:34.369Z,180.0
2017-10-11T06:41:52.386Z,236.0
2017-10-11T06:52:06.782Z,272.0
2017-10-11T07:14:12.377Z,844.0
2017-10-11T07:24:26.318Z,668.0
2017-10-11T07:34:43.778Z,956.0
2017-10-11T07:45:32.574Z,808.0
2017-10-11T07:55:47.139Z,1052.0
2017-10-11T08:06:01.398Z,1060.0
2017-10-11T08:16:46.757Z,1604.0
2017-10-11T08:27:00.967Z,1632.0
2017-10-11T08:37:19.418Z,2300.0
2017-10-11T08:48:04.583Z,1708.0
2017-10-11T08:58:16.288Z,3224.0
2017-10-11T09:08:31.087Z,3004.0
2017-10-11T09:19:16.525Z,4576.0
2017-10-11T09:29:30.922Z,3456.0
2017-10-11T09:40:43.750Z,3836.0
2017-10-11T09:50:57.574Z,2684.0
2017-10-11T10:01:11.841Z,3092.0
2017-10-11T10:11:26.074Z,3612.0
2017-10-11T10:22:13.764Z,4252.0
2017-10-11T10:32:27.853Z,4184.0
2017-10-11T10:42:42.089Z,4220.0
2017-10-11T10:52:57.344Z,4052.0
2017-10-11T11:03:41.822Z,5496.0
2017-10-11T11:13:55.487Z,9864.0
2017-10-11T11:25:11.923Z,11836.0
2017-10-11T11:35:26.632Z,9788.0
2017-10-11T11:45:38.681Z,13828.0
2017-10-11T11:55:56.124Z,8212.0
2017-10-11T12:06:10.469Z,4636.0
2017-10-11T12:16:27.963Z,2524.0
2017-10-11T12:26:41.644Z,2680.0
2017-10-11T12:36:55.997Z,4060.0
2017-10-11T12:47:10.045Z,4152.0
2017-10-11T12:57:24.481Z,3212.0
2017-10-11T13:07:38.575Z,4584.0
2017-10-11T13:17:53.071Z,4476.0
2017-10-11T13:28:06.201Z,4108.0
2017-10-11T13:38:20.539Z,3076.0
2017-10-11T13:48:34.403Z,2492.0
2017-10-11T13:58:49.147Z,1984.0
2017-10-11T14:09:33.364Z,1812.0
2017-10-11T14:19:47.800Z,1444.0
2017-10-11T14:30:05.247Z,1192.0
2017-10-11T14:40:19.211Z,1712.0
2017-10-11T14:50:30.615Z,1568.0
2017-10-11T15:00:44.614Z,1440.0
2017-10-11T15:10:58.815Z,1128.0
2017-10-11T15:21:13.002Z,988.0
2017-10-11T15:31:57.730Z,892.0
2017-10-11T15:42:12.157Z,720.0
2017-10-11T15:52:56.960Z,552.0
2017-10-11T16:03:11.332Z,444.0
2017-10-11T16:13:25.201Z,368.0
2017-10-11T16:23:39.646Z,224.0
2017-10-11T16:33:54.530Z,132.0
2017-10-11T16:44:09.024Z,56.0
2017-10-11T16:54:23.281Z,20.0
2017-10-11T17:04:37.408Z,4.0
2017-10-11T17:15:39.561Z,0.0
2017-10-11T17:26:24.853Z,0.0
2017-10-11T17:36:39.540Z,0.0
2017-10-11T17:46:58.555Z,0.0
2017-10-11T17:57:23.246Z,0.0
2017-10-11T18:07:54.712Z,0.0
2017-10-11T18:18:18.864Z,0.0
2017-10-11T18:28:39.302Z,0.0
2017-10-11T18:39:03.645Z,0.0
2017-10-11T18:49:23.181Z,0.0
2017-10-11T19:00:24.239Z,0.0
2017-10-11T19:11:24.347Z,0.0
2017-10-11T19:21:49.299Z,0.0
2017-10-11T19:32:43.576Z,0.0
2017-10-11T19:43:17.835Z,0.0
2017-10-11T19:54:14.492Z,0.0
2017-10-11T20:04:47.310Z,0.0
2017-10-11T20:15:50.715Z,0.0
2017-10-11T20:26:14.275Z,0.0
2017-10-11T20:37:18.917Z,0.0
2017-10-11T20:47:33.054Z,0.0
2017-10-11T20:57:44.918Z,0.0
2017-10-11T21:07:59.392Z,0.0
2017-10-11T21:18:15.256Z,0.0
2017-10-11T21:28:28.833Z,0.0
2017-10-11T21:38:44.111Z,0.0
2017-10-11T21:48:58.485Z,0.0
2017-10-11T21:59:12.536Z,0.0
2017-10-11T22:09:26.974Z,0.0
2017-10-11T22:20:12.224Z,0.0
2017-10-11T22:30:26.475Z,0.0
2017-10-11T22:40:40.862Z,0.0
2017-10-11T22:50:54.844Z,0.0
2017-10-11T23:01:09.115Z,0.0
2017-10-11T23:11:23.367Z,0.0
2017-10-11T23:21:34.903Z,0.0
2017-10-11T23:31:49.064Z,0.0
2017-10-11T23:42:03.040Z,0.0
2017-10-11T23:52:17.040Z,0.0
